sensor_id;sensor_type;location;lat;lon;timestamp;temperature;humidity
20041;DHT22;10181;48.072;9.884;2022-11-20T00:01:13;3.60;99.90
20041;DHT22;10181;48.072;9.884;2022-11-20T00:03:39;3.70;99.90
20041;DHT22;10181;48.072;9.884;2022-11-20T00:06:06;3.70;99.90
20041;DHT22;10181;48.072;9.884;2022-11-20T00:08:32;3.80;99.90
20041;DHT22;10181;48.072;9.884;2022-11-20T00:11:06;3.80;99.90
20041;DHT22;10181;48.072;9.884;2022-11-20T00:13:32;3.80;99.90
20041;DHT22;10181;48.072;9.884;2022-11-20T00:15:59;3.80;99.90
20041;DHT22;10181;48.072;9.884;2022-11-20T00:18:26;3.80;99.90
20041;DHT22;10181;48.072;9.884;2022-11-20T00:20:52;3.80;99.90
20041;DHT22;10181;48.072;9.884;2022-11-20T00:23:18;3.90;99.90
20041;DHT22;10181;48.072;9.884;2022-11-20T00:25:44;3.90;99.90
20041;DHT22;10181;48.072;9.884;2022-11-20T00:28:09;3.90;99.90
20041;DHT22;10181;48.072;9.884;2022-11-20T00:30:35;3.90;99.90
20041;DHT22;10181;48.072;9.884;2022-11-20T00:33:00;3.90;99.90
20041;DHT22;10181;48.072;9.884;2022-11-20T00:35:26;3.90;99.90
20041;DHT22;10181;48.072;9.884;2022-11-20T00:37:52;4.00;99.90
20041;DHT22;10181;48.072;9.884;2022-11-20T00:40:17;4.00;99.90
20041;DHT22;10181;48.072;9.884;2022-11-20T00:42:43;4.10;99.90
20041;DHT22;10181;48.072;9.884;2022-11-20T00:45:08;4.20;99.90
20041;DHT22;10181;48.072;9.884;2022-11-20T00:47:34;4.30;99.90
20041;DHT22;10181;48.072;9.884;2022-11-20T00:50:00;4.30;99.90
20041;DHT22;10181;48.072;9.884;2022-11-20T00:52:25;4.40;99.90
20041;DHT22;10181;48.072;9.884;2022-11-20T00:54:51;4.40;99.90
20041;DHT22;10181;48.072;9.884;2022-11-20T00:57:16;4.40;99.90
20041;DHT22;10181;48.072;9.884;2022-11-20T00:59:42;4.40;99.90
20041;DHT22;10181;48.072;9.884;2022-11-20T01:02:08;4.40;99.90
20041;DHT22;10181;48.072;9.884;2022-11-20T01:04:33;4.40;99.90
20041;DHT22;10181;48.072;9.884;2022-11-20T01:06:59;4.40;99.90
20041;DHT22;10181;48.072;9.884;2022-11-20T01:09:24;4.40;99.90
20041;DHT22;10181;48.072;9.884;2022-11-20T01:11:50;4.40;99.90
20041;DHT22;10181;48.072;9.884;2022-11-20T01:14:18;4.40;99.90
20041;DHT22;10181;48.072;9.884;2022-11-20T01:16:47;4.40;99.90
20041;DHT22;10181;48.072;9.884;2022-11-20T01:19:19;4.50;99.90
20041;DHT22;10181;48.072;9.884;2022-11-20T01:21:48;4.50;99.90
20041;DHT22;10181;48.072;9.884;2022-11-20T01:24:16;4.50;99.90
20041;DHT22;10181;48.072;9.884;2022-11-20T01:26:43;4.50;99.90
20041;DHT22;10181;48.072;9.884;2022-11-20T01:29:20;4.50;99.90
20041;DHT22;10181;48.072;9.884;2022-11-20T01:31:46;4.50;99.90
20041;DHT22;10181;48.072;9.884;2022-11-20T01:34:14;4.50;99.90
20041;DHT22;10181;48.072;9.884;2022-11-20T01:36:41;4.50;99.90
20041;DHT22;10181;48.072;9.884;2022-11-20T01:39:13;4.40;99.90
20041;DHT22;10181;48.072;9.884;2022-11-20T01:41:39;4.40;99.90
20041;DHT22;10181;48.072;9.884;2022-11-20T01:47:19;4.40;99.90
20041;DHT22;10181;48.072;9.884;2022-11-20T01:49:52;4.30;99.90
20041;DHT22;10181;48.072;9.884;2022-11-20T01:52:24;4.30;99.90
20041;DHT22;10181;48.072;9.884;2022-11-20T01:55:00;4.30;99.90
20041;DHT22;10181;48.072;9.884;2022-11-20T01:57:28;4.30;99.90
20041;DHT22;10181;48.072;9.884;2022-11-20T02:00:01;4.20;99.90
20041;DHT22;10181;48.072;9.884;2022-11-20T02:02:27;4.30;99.90
20041;DHT22;10181;48.072;9.884;2022-11-20T02:04:56;4.30;99.90
20041;DHT22;10181;48.072;9.884;2022-11-20T02:07:26;4.40;99.90
20041;DHT22;10181;48.072;9.884;2022-11-20T02:09:51;4.40;99.90
20041;DHT22;10181;48.072;9.884;2022-11-20T02:12:17;4.40;99.90
20041;DHT22;10181;48.072;9.884;2022-11-20T02:15:02;4.40;99.90
20041;DHT22;10181;48.072;9.884;2022-11-20T02:17:27;4.40;99.90
20041;DHT22;10181;48.072;9.884;2022-11-20T02:19:53;4.40;99.90
20041;DHT22;10181;48.072;9.884;2022-11-20T02:22:30;4.40;99.90
20041;DHT22;10181;48.072;9.884;2022-11-20T02:24:57;4.40;99.90
20041;DHT22;10181;48.072;9.884;2022-11-20T02:27:25;4.50;99.90
20041;DHT22;10181;48.072;9.884;2022-11-20T02:30:02;4.50;99.90
20041;DHT22;10181;48.072;9.884;2022-11-20T02:32:31;4.60;99.90
20041;DHT22;10181;48.072;9.884;2022-11-20T02:34:57;4.60;99.90
20041;DHT22;10181;48.072;9.884;2022-11-20T02:37:27;4.60;99.90
20041;DHT22;10181;48.072;9.884;2022-11-20T02:39:56;4.60;99.90
20041;DHT22;10181;48.072;9.884;2022-11-20T02:42:21;4.60;99.90
20041;DHT22;10181;48.072;9.884;2022-11-20T02:44:47;4.60;99.90
20041;DHT22;10181;48.072;9.884;2022-11-20T02:47:13;4.60;99.90
20041;DHT22;10181;48.072;9.884;2022-11-20T02:49:38;4.60;99.90
20041;DHT22;10181;48.072;9.884;2022-11-20T02:52:04;4.60;99.90
20041;DHT22;10181;48.072;9.884;2022-11-20T02:54:29;4.70;99.90
20041;DHT22;10181;48.072;9.884;2022-11-20T02:56:55;4.70;99.90
20041;DHT22;10181;48.072;9.884;2022-11-20T02:59:21;4.70;99.90
20041;DHT22;10181;48.072;9.884;2022-11-20T03:01:46;4.60;99.90
20041;DHT22;10181;48.072;9.884;2022-11-20T03:04:12;4.60;99.90
20041;DHT22;10181;48.072;9.884;2022-11-20T03:06:37;4.60;99.90
20041;DHT22;10181;48.072;9.884;2022-11-20T03:09:03;4.50;99.90
20041;DHT22;10181;48.072;9.884;2022-11-20T03:11:29;4.60;99.90
20041;DHT22;10181;48.072;9.884;2022-11-20T03:13:54;4.50;99.90
20041;DHT22;10181;48.072;9.884;2022-11-20T03:16:21;4.50;99.90
20041;DHT22;10181;48.072;9.884;2022-11-20T03:18:47;4.50;99.90
20041;DHT22;10181;48.072;9.884;2022-11-20T03:21:14;4.50;99.90
20041;DHT22;10181;48.072;9.884;2022-11-20T03:23:40;4.40;99.90
20041;DHT22;10181;48.072;9.884;2022-11-20T03:26:15;4.40;99.90
20041;DHT22;10181;48.072;9.884;2022-11-20T03:28:46;4.40;99.90
20041;DHT22;10181;48.072;9.884;2022-11-20T03:31:14;4.30;99.90
20041;DHT22;10181;48.072;9.884;2022-11-20T03:33:41;4.30;99.90
20041;DHT22;10181;48.072;9.884;2022-11-20T03:36:10;4.30;99.90
20041;DHT22;10181;48.072;9.884;2022-11-20T03:38:36;4.30;99.90
20041;DHT22;10181;48.072;9.884;2022-11-20T03:41:11;4.30;99.90
20041;DHT22;10181;48.072;9.884;2022-11-20T03:43:37;4.40;99.90
20041;DHT22;10181;48.072;9.884;2022-11-20T03:46:03;4.30;99.90
20041;DHT22;10181;48.072;9.884;2022-11-20T03:48:29;4.30;99.90
20041;DHT22;10181;48.072;9.884;2022-11-20T03:53:41;4.20;99.90
20041;DHT22;10181;48.072;9.884;2022-11-20T03:56:08;4.30;99.90
20041;DHT22;10181;48.072;9.884;2022-11-20T03:58:35;4.20;99.90
20041;DHT22;10181;48.072;9.884;2022-11-20T04:01:14;4.20;99.90
20041;DHT22;10181;48.072;9.884;2022-11-20T04:03:41;4.20;99.90
20041;DHT22;10181;48.072;9.884;2022-11-20T04:06:09;4.20;99.90
20041;DHT22;10181;48.072;9.884;2022-11-20T04:08:35;4.20;99.90
20041;DHT22;10181;48.072;9.884;2022-11-20T04:11:12;4.20;99.90
20041;DHT22;10181;48.072;9.884;2022-11-20T04:13:38;4.20;99.90
20041;DHT22;10181;48.072;9.884;2022-11-20T04:16:06;4.10;99.90
20041;DHT22;10181;48.072;9.884;2022-11-20T04:18:32;4.10;99.90
20041;DHT22;10181;48.072;9.884;2022-11-20T04:20:58;4.20;99.90
20041;DHT22;10181;48.072;9.884;2022-11-20T04:23:24;4.10;99.90
20041;DHT22;10181;48.072;9.884;2022-11-20T04:25:50;4.10;99.90
20041;DHT22;10181;48.072;9.884;2022-11-20T04:28:16;4.10;99.90
20041;DHT22;10181;48.072;9.884;2022-11-20T04:30:42;4.10;99.90
20041;DHT22;10181;48.072;9.884;2022-11-20T04:33:07;4.10;99.90
20041;DHT22;10181;48.072;9.884;2022-11-20T04:35:37;4.00;99.90
20041;DHT22;10181;48.072;9.884;2022-11-20T04:38:03;4.00;99.90
20041;DHT22;10181;48.072;9.884;2022-11-20T04:40:30;3.90;99.90
20041;DHT22;10181;48.072;9.884;2022-11-20T04:42:56;3.80;99.90
20041;DHT22;10181;48.072;9.884;2022-11-20T04:45:22;3.70;99.90
20041;DHT22;10181;48.072;9.884;2022-11-20T04:47:49;3.70;99.90
20041;DHT22;10181;48.072;9.884;2022-11-20T04:50:14;3.60;99.90
20041;DHT22;10181;48.072;9.884;2022-11-20T04:52:40;3.50;99.90
20041;DHT22;10181;48.072;9.884;2022-11-20T04:55:06;3.60;99.90
20041;DHT22;10181;48.072;9.884;2022-11-20T04:57:32;3.60;99.90
20041;DHT22;10181;48.072;9.884;2022-11-20T04:59:57;3.50;99.90
20041;DHT22;10181;48.072;9.884;2022-11-20T05:02:23;3.50;99.90
20041;DHT22;10181;48.072;9.884;2022-11-20T05:04:49;3.50;99.90
20041;DHT22;10181;48.072;9.884;2022-11-20T05:07:14;3.60;99.90
20041;DHT22;10181;48.072;9.884;2022-11-20T05:09:40;3.60;99.90
20041;DHT22;10181;48.072;9.884;2022-11-20T05:12:07;3.70;99.90
20041;DHT22;10181;48.072;9.884;2022-11-20T05:14:34;3.70;99.90
20041;DHT22;10181;48.072;9.884;2022-11-20T05:16:59;3.80;99.90
20041;DHT22;10181;48.072;9.884;2022-11-20T05:19:25;3.80;99.90
20041;DHT22;10181;48.072;9.884;2022-11-20T05:21:51;3.90;99.90
20041;DHT22;10181;48.072;9.884;2022-11-20T05:24:16;3.90;99.90
20041;DHT22;10181;48.072;9.884;2022-11-20T05:26:42;4.00;99.90
20041;DHT22;10181;48.072;9.884;2022-11-20T05:29:10;4.10;99.90
20041;DHT22;10181;48.072;9.884;2022-11-20T05:31:36;4.10;99.90
20041;DHT22;10181;48.072;9.884;2022-11-20T05:34:02;4.10;99.90
20041;DHT22;10181;48.072;9.884;2022-11-20T05:36:28;4.10;99.90
20041;DHT22;10181;48.072;9.884;2022-11-20T05:38:55;4.10;99.90
20041;DHT22;10181;48.072;9.884;2022-11-20T05:41:21;4.10;99.90
20041;DHT22;10181;48.072;9.884;2022-11-20T05:43:47;4.10;99.90
20041;DHT22;10181;48.072;9.884;2022-11-20T05:46:15;4.10;99.90
20041;DHT22;10181;48.072;9.884;2022-11-20T05:48:42;4.20;99.90
20041;DHT22;10181;48.072;9.884;2022-11-20T05:51:10;4.20;99.90
20041;DHT22;10181;48.072;9.884;2022-11-20T05:53:36;4.20;99.90
20041;DHT22;10181;48.072;9.884;2022-11-20T05:56:05;4.20;99.90
20041;DHT22;10181;48.072;9.884;2022-11-20T05:58:31;4.20;99.90
20041;DHT22;10181;48.072;9.884;2022-11-20T06:01:16;4.20;99.90
20041;DHT22;10181;48.072;9.884;2022-11-20T06:03:42;4.20;99.90
20041;DHT22;10181;48.072;9.884;2022-11-20T06:06:11;4.20;99.90
20041;DHT22;10181;48.072;9.884;2022-11-20T06:08:37;4.20;99.90
20041;DHT22;10181;48.072;9.884;2022-11-20T06:11:08;4.20;99.90
20041;DHT22;10181;48.072;9.884;2022-11-20T06:13:34;4.20;99.90
20041;DHT22;10181;48.072;9.884;2022-11-20T06:16:00;4.20;99.90
20041;DHT22;10181;48.072;9.884;2022-11-20T06:18:27;4.20;99.90
20041;DHT22;10181;48.072;9.884;2022-11-20T06:21:06;4.20;99.90
20041;DHT22;10181;48.072;9.884;2022-11-20T06:23:33;4.10;99.90
20041;DHT22;10181;48.072;9.884;2022-11-20T06:26:06;4.20;99.90
20041;DHT22;10181;48.072;9.884;2022-11-20T06:28:32;4.20;99.90
20041;DHT22;10181;48.072;9.884;2022-11-20T06:30:58;4.20;99.90
20041;DHT22;10181;48.072;9.884;2022-11-20T06:33:24;4.10;99.90
20041;DHT22;10181;48.072;9.884;2022-11-20T06:35:50;4.10;99.90
20041;DHT22;10181;48.072;9.884;2022-11-20T06:38:15;4.10;99.90
20041;DHT22;10181;48.072;9.884;2022-11-20T06:40:41;4.10;99.90
20041;DHT22;10181;48.072;9.884;2022-11-20T06:43:08;4.10;99.90
20041;DHT22;10181;48.072;9.884;2022-11-20T06:45:34;4.10;99.90
20041;DHT22;10181;48.072;9.884;2022-11-20T06:47:59;4.10;99.90
20041;DHT22;10181;48.072;9.884;2022-11-20T06:50:25;4.10;99.90
20041;DHT22;10181;48.072;9.884;2022-11-20T06:52:50;4.10;99.90
20041;DHT22;10181;48.072;9.884;2022-11-20T06:55:16;4.10;99.90
20041;DHT22;10181;48.072;9.884;2022-11-20T06:57:42;4.20;99.90
20041;DHT22;10181;48.072;9.884;2022-11-20T07:00:08;4.20;99.90
20041;DHT22;10181;48.072;9.884;2022-11-20T07:02:33;4.20;99.90
20041;DHT22;10181;48.072;9.884;2022-11-20T07:04:59;4.30;99.90
20041;DHT22;10181;48.072;9.884;2022-11-20T07:07:24;4.30;99.90
20041;DHT22;10181;48.072;9.884;2022-11-20T07:09:50;4.30;99.90
20041;DHT22;10181;48.072;9.884;2022-11-20T07:12:16;4.30;99.90
20041;DHT22;10181;48.072;9.884;2022-11-20T07:14:42;4.30;99.90
20041;DHT22;10181;48.072;9.884;2022-11-20T07:17:07;4.30;99.90
20041;DHT22;10181;48.072;9.884;2022-11-20T07:19:33;4.30;99.90
20041;DHT22;10181;48.072;9.884;2022-11-20T07:21:59;4.30;99.90
20041;DHT22;10181;48.072;9.884;2022-11-20T07:24:24;4.30;99.90
20041;DHT22;10181;48.072;9.884;2022-11-20T07:26:50;4.40;99.90
20041;DHT22;10181;48.072;9.884;2022-11-20T07:29:16;4.40;99.90
20041;DHT22;10181;48.072;9.884;2022-11-20T07:31:42;4.40;99.90
20041;DHT22;10181;48.072;9.884;2022-11-20T07:34:07;4.40;99.90
20041;DHT22;10181;48.072;9.884;2022-11-20T07:36:33;4.40;99.90
20041;DHT22;10181;48.072;9.884;2022-11-20T07:38:59;4.50;99.90
20041;DHT22;10181;48.072;9.884;2022-11-20T07:41:25;4.50;99.90
20041;DHT22;10181;48.072;9.884;2022-11-20T07:43:50;4.50;99.90
20041;DHT22;10181;48.072;9.884;2022-11-20T07:46:16;4.50;99.90
20041;DHT22;10181;48.072;9.884;2022-11-20T07:48:41;4.50;99.90
20041;DHT22;10181;48.072;9.884;2022-11-20T07:51:07;4.50;99.90
20041;DHT22;10181;48.072;9.884;2022-11-20T07:53:33;4.60;99.90
20041;DHT22;10181;48.072;9.884;2022-11-20T07:56:02;4.60;99.90
20041;DHT22;10181;48.072;9.884;2022-11-20T07:58:29;4.60;99.90
20041;DHT22;10181;48.072;9.884;2022-11-20T08:00:54;4.70;99.90
20041;DHT22;10181;48.072;9.884;2022-11-20T08:03:20;4.70;99.90
20041;DHT22;10181;48.072;9.884;2022-11-20T08:05:45;4.80;99.90
20041;DHT22;10181;48.072;9.884;2022-11-20T08:08:11;4.80;99.90
20041;DHT22;10181;48.072;9.884;2022-11-20T08:10:38;4.80;99.90
20041;DHT22;10181;48.072;9.884;2022-11-20T08:13:03;4.80;99.90
20041;DHT22;10181;48.072;9.884;2022-11-20T08:15:49;4.90;99.90
20041;DHT22;10181;48.072;9.884;2022-11-20T08:18:16;4.90;99.90
20041;DHT22;10181;48.072;9.884;2022-11-20T08:20:43;5.00;99.90
20041;DHT22;10181;48.072;9.884;2022-11-20T08:23:08;5.00;99.90
20041;DHT22;10181;48.072;9.884;2022-11-20T08:25:36;5.10;99.90
20041;DHT22;10181;48.072;9.884;2022-11-20T08:28:05;5.20;99.90
20041;DHT22;10181;48.072;9.884;2022-11-20T08:30:31;5.20;99.90
20041;DHT22;10181;48.072;9.884;2022-11-20T08:33:02;5.20;99.90
20041;DHT22;10181;48.072;9.884;2022-11-20T08:35:28;5.20;99.90
20041;DHT22;10181;48.072;9.884;2022-11-20T08:37:57;5.30;99.90
20041;DHT22;10181;48.072;9.884;2022-11-20T08:40:23;5.20;99.90
20041;DHT22;10181;48.072;9.884;2022-11-20T08:42:49;5.20;99.90
20041;DHT22;10181;48.072;9.884;2022-11-20T08:45:16;5.20;99.90
20041;DHT22;10181;48.072;9.884;2022-11-20T08:47:42;5.20;99.90
20041;DHT22;10181;48.072;9.884;2022-11-20T08:50:09;5.30;99.90
20041;DHT22;10181;48.072;9.884;2022-11-20T08:52:35;5.40;99.90
20041;DHT22;10181;48.072;9.884;2022-11-20T08:55:01;5.30;99.90
20041;DHT22;10181;48.072;9.884;2022-11-20T08:57:26;5.30;99.90
20041;DHT22;10181;48.072;9.884;2022-11-20T08:59:52;5.20;99.90
20041;DHT22;10181;48.072;9.884;2022-11-20T09:02:17;5.20;99.90
20041;DHT22;10181;48.072;9.884;2022-11-20T09:04:43;5.30;99.90
20041;DHT22;10181;48.072;9.884;2022-11-20T09:07:09;5.40;99.90
20041;DHT22;10181;48.072;9.884;2022-11-20T09:09:34;5.40;99.90
20041;DHT22;10181;48.072;9.884;2022-11-20T09:12:00;5.40;99.90
20041;DHT22;10181;48.072;9.884;2022-11-20T09:14:25;5.30;99.90
20041;DHT22;10181;48.072;9.884;2022-11-20T09:16:55;5.40;99.90
20041;DHT22;10181;48.072;9.884;2022-11-20T09:19:20;5.40;99.90
20041;DHT22;10181;48.072;9.884;2022-11-20T09:21:46;5.50;99.90
20041;DHT22;10181;48.072;9.884;2022-11-20T09:24:12;5.60;99.90
20041;DHT22;10181;48.072;9.884;2022-11-20T09:26:37;5.80;99.90
20041;DHT22;10181;48.072;9.884;2022-11-20T09:29:03;5.80;99.90
20041;DHT22;10181;48.072;9.884;2022-11-20T09:31:29;5.90;99.90
20041;DHT22;10181;48.072;9.884;2022-11-20T09:33:54;5.80;99.90
20041;DHT22;10181;48.072;9.884;2022-11-20T09:36:20;5.80;99.90
20041;DHT22;10181;48.072;9.884;2022-11-20T09:38:46;5.80;99.90
20041;DHT22;10181;48.072;9.884;2022-11-20T09:55:34;5.90;99.90
20041;DHT22;10181;48.072;9.884;2022-11-20T09:58:01;6.10;99.90
20041;DHT22;10181;48.072;9.884;2022-11-20T10:00:28;6.10;99.90
20041;DHT22;10181;48.072;9.884;2022-11-20T10:03:11;6.00;99.90
20041;DHT22;10181;48.072;9.884;2022-11-20T10:05:52;6.10;99.90
20041;DHT22;10181;48.072;9.884;2022-11-20T10:08:23;6.10;99.90
20041;DHT22;10181;48.072;9.884;2022-11-20T10:10:56;6.00;99.90
20041;DHT22;10181;48.072;9.884;2022-11-20T10:16:36;5.90;99.90
20041;DHT22;10181;48.072;9.884;2022-11-20T10:22:26;5.90;99.90
20041;DHT22;10181;48.072;9.884;2022-11-20T10:30:18;5.80;99.90
20041;DHT22;10181;48.072;9.884;2022-11-20T10:32:58;5.80;99.90
20041;DHT22;10181;48.072;9.884;2022-11-20T10:35:49;5.80;99.90
20041;DHT22;10181;48.072;9.884;2022-11-20T10:38:23;5.90;99.90
20041;DHT22;10181;48.072;9.884;2022-11-20T10:40:58;5.90;99.90
20041;DHT22;10181;48.072;9.884;2022-11-20T10:43:45;5.90;99.90
20041;DHT22;10181;48.072;9.884;2022-11-20T10:46:18;5.90;99.90
20041;DHT22;10181;48.072;9.884;2022-11-20T10:48:46;5.90;99.90
20041;DHT22;10181;48.072;9.884;2022-11-20T10:51:34;5.90;99.90
20041;DHT22;10181;48.072;9.884;2022-11-20T10:57:00;5.90;99.90
20041;DHT22;10181;48.072;9.884;2022-11-20T11:01:56;5.80;99.90
20041;DHT22;10181;48.072;9.884;2022-11-20T11:07:07;5.90;99.90
20041;DHT22;10181;48.072;9.884;2022-11-20T11:09:42;5.80;99.90
20041;DHT22;10181;48.072;9.884;2022-11-20T11:12:09;5.80;99.90
20041;DHT22;10181;48.072;9.884;2022-11-20T11:14:49;5.80;99.90
20041;DHT22;10181;48.072;9.884;2022-11-20T11:17:32;5.90;99.90
20041;DHT22;10181;48.072;9.884;2022-11-20T11:20:16;5.90;99.90
20041;DHT22;10181;48.072;9.884;2022-11-20T11:25:31;5.90;99.90
20041;DHT22;10181;48.072;9.884;2022-11-20T11:30:46;5.90;99.90
20041;DHT22;10181;48.072;9.884;2022-11-20T11:33:26;6.00;99.90
20041;DHT22;10181;48.072;9.884;2022-11-20T11:35:55;6.00;99.90
20041;DHT22;10181;48.072;9.884;2022-11-20T11:38:39;6.10;99.90
20041;DHT22;10181;48.072;9.884;2022-11-20T11:41:09;6.10;99.90
20041;DHT22;10181;48.072;9.884;2022-11-20T11:43:37;6.10;99.90
20041;DHT22;10181;48.072;9.884;2022-11-20T11:46:34;6.10;99.90
20041;DHT22;10181;48.072;9.884;2022-11-20T11:52:27;6.10;99.90
20041;DHT22;10181;48.072;9.884;2022-11-20T11:54:53;6.00;99.90
20041;DHT22;10181;48.072;9.884;2022-11-20T11:57:29;6.00;99.90
20041;DHT22;10181;48.072;9.884;2022-11-20T12:08:05;6.10;99.90
20041;DHT22;10181;48.072;9.884;2022-11-20T12:10:40;6.20;99.90
20041;DHT22;10181;48.072;9.884;2022-11-20T12:15:55;6.20;99.90
20041;DHT22;10181;48.072;9.884;2022-11-20T12:18:21;6.20;99.90
20041;DHT22;10181;48.072;9.884;2022-11-20T12:35:08;6.10;99.90
20041;DHT22;10181;48.072;9.884;2022-11-20T12:38:00;6.10;99.90
20041;DHT22;10181;48.072;9.884;2022-11-20T12:43:23;6.00;99.90
20041;DHT22;10181;48.072;9.884;2022-11-20T12:49:20;6.00;99.90
20041;DHT22;10181;48.072;9.884;2022-11-20T12:57:16;6.00;99.90
20041;DHT22;10181;48.072;9.884;2022-11-20T13:00:32;6.10;99.90
20041;DHT22;10181;48.072;9.884;2022-11-20T13:08:25;6.00;99.90
20041;DHT22;10181;48.072;9.884;2022-11-20T13:16:19;6.10;99.90
20041;DHT22;10181;48.072;9.884;2022-11-20T13:18:49;6.10;99.90
20041;DHT22;10181;48.072;9.884;2022-11-20T13:21:17;6.10;99.90
20041;DHT22;10181;48.072;9.884;2022-11-20T13:23:43;6.10;99.90
20041;DHT22;10181;48.072;9.884;2022-11-20T13:26:17;6.10;99.90
20041;DHT22;10181;48.072;9.884;2022-11-20T13:28:43;6.10;99.90
20041;DHT22;10181;48.072;9.884;2022-11-20T13:31:32;6.10;99.90
20041;DHT22;10181;48.072;9.884;2022-11-20T13:33:59;6.20;99.90
20041;DHT22;10181;48.072;9.884;2022-11-20T13:36:28;6.10;99.90
20041;DHT22;10181;48.072;9.884;2022-11-20T13:38:56;6.20;99.90
20041;DHT22;10181;48.072;9.884;2022-11-20T13:41:33;6.30;99.90
20041;DHT22;10181;48.072;9.884;2022-11-20T13:46:43;6.30;99.90
20041;DHT22;10181;48.072;9.884;2022-11-20T13:49:46;6.20;99.90
20041;DHT22;10181;48.072;9.884;2022-11-20T13:55:38;6.10;99.90
20041;DHT22;10181;48.072;9.884;2022-11-20T13:58:44;6.10;99.90
20041;DHT22;10181;48.072;9.884;2022-11-20T14:01:21;6.10;99.90
20041;DHT22;10181;48.072;9.884;2022-11-20T14:03:48;6.30;99.90
20041;DHT22;10181;48.072;9.884;2022-11-20T14:06:25;6.40;99.90
20041;DHT22;10181;48.072;9.884;2022-11-20T14:08:52;6.50;99.90
20041;DHT22;10181;48.072;9.884;2022-11-20T14:11:19;6.40;99.90
20041;DHT22;10181;48.072;9.884;2022-11-20T14:14:18;6.50;99.90
20041;DHT22;10181;48.072;9.884;2022-11-20T14:16:44;6.40;99.90
20041;DHT22;10181;48.072;9.884;2022-11-20T14:21:49;6.40;99.90
20041;DHT22;10181;48.072;9.884;2022-11-20T14:24:19;6.40;99.90
20041;DHT22;10181;48.072;9.884;2022-11-20T14:26:46;6.30;99.90
20041;DHT22;10181;48.072;9.884;2022-11-20T14:29:17;6.40;99.90
20041;DHT22;10181;48.072;9.884;2022-11-20T14:31:45;6.40;99.90
20041;DHT22;10181;48.072;9.884;2022-11-20T14:34:28;6.30;99.90
20041;DHT22;10181;48.072;9.884;2022-11-20T14:37:03;6.30;99.90
20041;DHT22;10181;48.072;9.884;2022-11-20T14:41:57;6.50;99.90
20041;DHT22;10181;48.072;9.884;2022-11-20T14:44:30;6.50;99.90
20041;DHT22;10181;48.072;9.884;2022-11-20T14:46:57;6.50;99.90
20041;DHT22;10181;48.072;9.884;2022-11-20T14:49:24;6.40;99.90
20041;DHT22;10181;48.072;9.884;2022-11-20T14:51:59;6.40;99.90
20041;DHT22;10181;48.072;9.884;2022-11-20T14:54:25;6.40;99.90
20041;DHT22;10181;48.072;9.884;2022-11-20T14:57:00;6.40;99.90
20041;DHT22;10181;48.072;9.884;2022-11-20T14:59:29;6.40;99.90
20041;DHT22;10181;48.072;9.884;2022-11-20T15:04:28;6.40;99.90
20041;DHT22;10181;48.072;9.884;2022-11-20T15:06:56;6.40;99.90
20041;DHT22;10181;48.072;9.884;2022-11-20T15:09:22;6.40;99.90
20041;DHT22;10181;48.072;9.884;2022-11-20T15:11:59;6.40;99.90
20041;DHT22;10181;48.072;9.884;2022-11-20T15:14:27;6.40;99.90
20041;DHT22;10181;48.072;9.884;2022-11-20T15:16:54;6.40;99.90
20041;DHT22;10181;48.072;9.884;2022-11-20T15:19:25;6.30;99.90
20041;DHT22;10181;48.072;9.884;2022-11-20T15:21:51;6.20;99.90
20041;DHT22;10181;48.072;9.884;2022-11-20T15:24:17;6.20;99.90
20041;DHT22;10181;48.072;9.884;2022-11-20T15:26:43;6.20;99.90
20041;DHT22;10181;48.072;9.884;2022-11-20T15:29:11;6.20;99.90
20041;DHT22;10181;48.072;9.884;2022-11-20T15:31:37;6.10;99.90
20041;DHT22;10181;48.072;9.884;2022-11-20T15:34:10;6.10;99.90
20041;DHT22;10181;48.072;9.884;2022-11-20T15:36:36;6.00;99.90
20041;DHT22;10181;48.072;9.884;2022-11-20T15:39:02;6.00;99.90
20041;DHT22;10181;48.072;9.884;2022-11-20T15:41:27;6.00;99.90
20041;DHT22;10181;48.072;9.884;2022-11-20T15:43:53;6.00;99.90
20041;DHT22;10181;48.072;9.884;2022-11-20T15:46:25;6.00;99.90
20041;DHT22;10181;48.072;9.884;2022-11-20T15:48:54;5.90;99.90
20041;DHT22;10181;48.072;9.884;2022-11-20T15:53:51;5.80;99.90
20041;DHT22;10181;48.072;9.884;2022-11-20T15:56:17;5.70;99.90
20041;DHT22;10181;48.072;9.884;2022-11-20T15:58:43;5.60;99.90
20041;DHT22;10181;48.072;9.884;2022-11-20T16:01:14;5.60;99.90
20041;DHT22;10181;48.072;9.884;2022-11-20T16:03:41;5.50;99.90
20041;DHT22;10181;48.072;9.884;2022-11-20T16:06:07;5.50;99.90
20041;DHT22;10181;48.072;9.884;2022-11-20T16:08:33;5.50;99.90
20041;DHT22;10181;48.072;9.884;2022-11-20T16:10:58;5.40;99.90
20041;DHT22;10181;48.072;9.884;2022-11-20T16:13:24;5.30;99.90
20041;DHT22;10181;48.072;9.884;2022-11-20T16:16:23;5.20;99.90
20041;DHT22;10181;48.072;9.884;2022-11-20T16:18:53;5.00;99.90
20041;DHT22;10181;48.072;9.884;2022-11-20T16:21:19;4.90;99.90
20041;DHT22;10181;48.072;9.884;2022-11-20T16:23:44;4.80;99.90
20041;DHT22;10181;48.072;9.884;2022-11-20T16:26:15;4.80;99.90
20041;DHT22;10181;48.072;9.884;2022-11-20T16:28:42;4.90;99.90
20041;DHT22;10181;48.072;9.884;2022-11-20T16:31:13;4.90;99.90
20041;DHT22;10181;48.072;9.884;2022-11-20T16:33:39;4.90;99.90
20041;DHT22;10181;48.072;9.884;2022-11-20T16:36:10;5.00;99.90
20041;DHT22;10181;48.072;9.884;2022-11-20T16:38:36;5.00;99.90
20041;DHT22;10181;48.072;9.884;2022-11-20T16:41:02;5.00;99.90
20041;DHT22;10181;48.072;9.884;2022-11-20T16:43:28;5.10;99.90
20041;DHT22;10181;48.072;9.884;2022-11-20T16:45:54;5.10;99.90
20041;DHT22;10181;48.072;9.884;2022-11-20T16:48:19;5.10;99.90
20041;DHT22;10181;48.072;9.884;2022-11-20T16:50:49;5.10;99.90
20041;DHT22;10181;48.072;9.884;2022-11-20T16:53:17;5.10;99.90
20041;DHT22;10181;48.072;9.884;2022-11-20T16:55:43;5.10;99.90
20041;DHT22;10181;48.072;9.884;2022-11-20T16:58:09;5.10;99.90
20041;DHT22;10181;48.072;9.884;2022-11-20T17:00:36;5.10;99.90
20041;DHT22;10181;48.072;9.884;2022-11-20T17:03:03;5.10;99.90
20041;DHT22;10181;48.072;9.884;2022-11-20T17:05:29;5.10;99.90
20041;DHT22;10181;48.072;9.884;2022-11-20T17:07:55;5.10;99.90
20041;DHT22;10181;48.072;9.884;2022-11-20T17:10:20;5.10;99.90
20041;DHT22;10181;48.072;9.884;2022-11-20T17:12:46;5.10;99.90
20041;DHT22;10181;48.072;9.884;2022-11-20T17:15:11;5.10;99.90
20041;DHT22;10181;48.072;9.884;2022-11-20T17:17:37;5.10;99.90
20041;DHT22;10181;48.072;9.884;2022-11-20T17:20:03;5.10;99.90
20041;DHT22;10181;48.072;9.884;2022-11-20T17:22:28;5.10;99.90
20041;DHT22;10181;48.072;9.884;2022-11-20T17:24:55;5.10;99.90
20041;DHT22;10181;48.072;9.884;2022-11-20T17:27:21;5.00;99.90
20041;DHT22;10181;48.072;9.884;2022-11-20T17:29:46;5.00;99.90
20041;DHT22;10181;48.072;9.884;2022-11-20T17:32:12;5.00;99.90
20041;DHT22;10181;48.072;9.884;2022-11-20T17:34:38;4.90;99.90
20041;DHT22;10181;48.072;9.884;2022-11-20T17:37:03;4.80;99.90
20041;DHT22;10181;48.072;9.884;2022-11-20T17:39:29;4.90;99.90
20041;DHT22;10181;48.072;9.884;2022-11-20T17:41:54;5.00;99.90
20041;DHT22;10181;48.072;9.884;2022-11-20T17:44:39;5.00;99.90
20041;DHT22;10181;48.072;9.884;2022-11-20T17:47:06;5.00;99.90